Dutch Harbor, AK

11:52 AM AKDT on August 27, 2014 (GMT -0800)
Dutch Harbor | Change Station
CLOSE
Current Station
Airport
Location: Dutch Harbor,
Elevation: 13 ft
Nearby Weather Stations

Elev 13 ft 53.90 °N, 166.54 °W | Updated 56 minutes ago

Mostly Cloudy
Mostly Cloudy
57 °F
Feels Like 57 °F
N
4
Wind Variable Wind from Variable

Today
High -- | Low -- °F
--% Chance of Precip.
Yesterday
High -- | Low -- °F
Precip. -- in
8:08 AM 10:08 PM
Waxing Crescent, 5% visible
Pressure 29.80 in
Visibility 10.0 miles
Clouds Mostly Cloudy 2700 ft
Dew Point 47 °F
Humidity 69%
Rainfall 0.07 in
Snow Depth Not available.
UV 1 out of 12
Pollen Not available.
Air Quality Not available.
Flu Activity Not available.
METAR PADU 271856Z VRB03KT 10SM BKN027 14/08 A2978 RMK AO2 SLP089 MH T01390083

More Conditions Fewer Conditions

Pressure 29.80 in
Visibility 10.0 miles
Clouds Mostly Cloudy 2700 ft
Dew Point 47 °F
Humidity 69%
Rainfall 0.07 in
Snow Depth Not available.
UV 1 out of 12
Pollen Not available.
Air Quality Not available.
Flu Activity Not available.
METAR PADU 271856Z VRB03KT 10SM BKN027 14/08 A2978 RMK AO2 SLP089 MH T01390083

More Conditions Fewer Conditions

10-Day Weather Forecast

Almanac

Astronomy

Aug. 27, 2014 Rise Set
Actual Time 8:08 AM AKDT 10:08 PM AKDT
Civil Twilight 7:31 AM AKDT 10:46 PM AKDT
Nautical Twilight 6:43 AM AKDT 11:32 PM AKDT
Astronomical Twilight 5:49 AM AKDT 12:26 AM AKDT
Moon 10:41 AM AKDT 10:39 PM AKDT
Length of Visible Light 15h 15m
Length of Day
14h 00m
Tomorrow will be 4m 6s shorter.
Waxing Crescent, 5% of the Moon is Illuminated
Today
Waxing Crescent
Sep 2
First Quarter
Sep 8
Full
Sep 15
Last Quarter
Sep 24
New

Today's Extremes

State Highs State Lows

Community

WunderPhotos

Upload Photos

1,747,771 photos uploaded!

Nearby

Snow Depth

Station Depth Elevation
Port Graham 0 in 300 ft
Mcneil Canyon 1 in 1320 ft
MF Bradley River 3 in 2300 ft
Nuka Glacier 164 in 1250 ft
Rocky Point 4 in 500 ft

Earthquake Activity

City Distance Mag. Time & Date
No recent earthquake activity has been reported nearby.
Minimum magnitude displayed is 2.5.

Coastal Water Temperatures

Place Temperature
No Stations Reporting

Nearby Weather Stations